ANA1697 RJOO-RJSF
Flight info
| Callsign | ANA1697 |
|---|---|
| Flight time | 0h 42m |
| Altitude | 35000 |
| Route | MINAC YOKKA KCC Y88 DAIGO |
| Aircraft | B763/H-SDE3FGHIM3RWXY/LB1 |
Departure
| Time | 2026-05-04 10:09 |
|---|---|
| Airport | Osaka Itami International Airport (RJOO) |
Arrival
| Time | 2026-05-04 10:52 |
|---|---|
| Airport | Fukushima Airport (RJSF) |
| Time | Latitude | Longitude | Altitude | Speed | Heading |
|---|---|---|---|---|---|
| 2026-05-04 09:46 | 34.78789 | 135.44417 | 52 ft | 0 kts | 331° |
| 2026-05-04 09:58 | 34.78778 | 135.44423 | 52 ft | 2 kts | 330° |
| 2026-05-04 09:58 | 34.78765 | 135.44432 | 51 ft | 2 kts | 330° |
| 2026-05-04 10:00 | 34.78665 | 135.44452 | 48 ft | 2 kts | 24° |
| 2026-05-04 10:00 | 34.78651 | 135.44443 | 48 ft | 2 kts | 34° |
| 2026-05-04 10:02 | 34.78588 | 135.44345 | 43 ft | 2 kts | 88° |
| 2026-05-04 10:04 | 34.78608 | 135.44289 | 41 ft | 0 kts | 135° |
| 2026-05-04 10:05 | 34.78607 | 135.44290 | 41 ft | 0 kts | 135° |
| 2026-05-04 10:05 | 34.78596 | 135.44302 | 41 ft | 7 kts | 134° |
| 2026-05-04 10:05 | 34.78560 | 135.44334 | 42 ft | 5 kts | 158° |
| 2026-05-04 10:05 | 34.78521 | 135.44338 | 41 ft | 5 kts | 181° |
| 2026-05-04 10:06 | 34.78469 | 135.44336 | 40 ft | 9 kts | 181° |
| 2026-05-04 10:06 | 34.78388 | 135.44333 | 40 ft | 13 kts | 181° |
| 2026-05-04 10:06 | 34.78235 | 135.44331 | 38 ft | 29 kts | 176° |
| 2026-05-04 10:08 | 34.77497 | 135.44852 | 27 ft | 16 kts | 317° |
| 2026-05-04 10:08 | 34.77595 | 135.44733 | 29 ft | 36 kts | 314° |
| 2026-05-04 10:08 | 34.77945 | 135.44316 | 33 ft | 100 kts | 313° |
| 2026-05-04 10:08 | 34.78561 | 135.43559 | 52 ft | 149 kts | 315° |
| 2026-05-04 10:09 | 34.79324 | 135.42664 | 530 ft | 157 kts | 317° |
| 2026-05-04 10:09 | 34.79970 | 135.41643 | 1219 ft | 158 kts | 294° |
| 2026-05-04 10:09 | 34.80022 | 135.40214 | 1626 ft | 186 kts | 261° |
| 2026-05-04 10:09 | 34.79342 | 135.38739 | 1976 ft | 223 kts | 231° |
| 2026-05-04 10:10 | 34.78004 | 135.37743 | 2754 ft | 237 kts | 199° |
| 2026-05-04 10:10 | 34.76355 | 135.37846 | 3576 ft | 247 kts | 158° |
| 2026-05-04 10:10 | 34.74976 | 135.39186 | 3922 ft | 269 kts | 119° |
| 2026-05-04 10:10 | 34.74462 | 135.41341 | 4453 ft | 271 kts | 83° |
| 2026-05-04 10:11 | 34.75006 | 135.43449 | 4937 ft | 270 kts | 48° |
| 2026-05-04 10:11 | 34.76394 | 135.44891 | 5693 ft | 262 kts | 24° |
| 2026-05-04 10:11 | 34.77956 | 135.46025 | 6482 ft | 267 kts | 27° |
| 2026-05-04 10:11 | 34.79039 | 135.47006 | 7030 ft | 274 kts | 34° |
| 2026-05-04 10:12 | 34.79619 | 135.47711 | 7299 ft | 284 kts | 44° |
| 2026-05-04 10:13 | 34.80434 | 135.49930 | 8057 ft | 303 kts | 76° |
| 2026-05-04 10:13 | 34.80326 | 135.52542 | 8774 ft | 316 kts | 98° |
| 2026-05-04 10:13 | 34.79818 | 135.55135 | 9629 ft | 319 kts | 101° |
| 2026-05-04 10:13 | 34.79387 | 135.57797 | 10421 ft | 325 kts | 96° |
| 2026-05-04 10:14 | 34.79114 | 135.60586 | 10889 ft | 343 kts | 92° |
| 2026-05-04 10:14 | 34.78947 | 135.63564 | 11387 ft | 359 kts | 90° |
| 2026-05-04 10:16 | 34.82679 | 135.86163 | 14154 ft | 446 kts | 64° |
| 2026-05-04 10:16 | 34.83494 | 135.88628 | 14552 ft | 450 kts | 65° |
| 2026-05-04 10:16 | 34.84650 | 135.92201 | 15064 ft | 457 kts | 65° |
| 2026-05-04 10:17 | 34.85813 | 135.95860 | 15537 ft | 464 kts | 65° |
| 2026-05-04 10:17 | 34.86950 | 135.99487 | 16017 ft | 470 kts | 66° |
| 2026-05-04 10:19 | 34.95264 | 136.26682 | 19069 ft | 510 kts | 68° |
| 2026-05-04 10:19 | 34.96502 | 136.30749 | 19389 ft | 516 kts | 68° |
| 2026-05-04 10:19 | 34.97754 | 136.34866 | 19852 ft | 519 kts | 68° |
| 2026-05-04 10:19 | 34.99007 | 136.38997 | 20134 ft | 527 kts | 69° |
| 2026-05-04 10:20 | 35.00335 | 136.43193 | 20446 ft | 532 kts | 67° |
| 2026-05-04 10:20 | 35.01849 | 136.47339 | 20816 ft | 536 kts | 61° |
| 2026-05-04 10:20 | 35.03658 | 136.51306 | 21203 ft | 538 kts | 55° |
| 2026-05-04 10:20 | 35.05697 | 136.55176 | 21545 ft | 541 kts | 52° |
| 2026-05-04 10:21 | 35.07844 | 136.58945 | 21825 ft | 546 kts | 51° |
| 2026-05-04 10:21 | 35.10077 | 136.62738 | 22124 ft | 551 kts | 50° |
| 2026-05-04 10:21 | 35.12314 | 136.66504 | 22489 ft | 554 kts | 50° |
| 2026-05-04 10:21 | 35.14600 | 136.70378 | 22755 ft | 559 kts | 52° |
| 2026-05-04 10:22 | 35.19111 | 136.78175 | 23338 ft | 567 kts | 52° |
| 2026-05-04 10:22 | 35.21376 | 136.82167 | 23601 ft | 572 kts | 53° |
| 2026-05-04 10:22 | 35.23627 | 136.86177 | 24008 ft | 573 kts | 53° |
| 2026-05-04 10:23 | 35.25747 | 136.90277 | 24278 ft | 578 kts | 58° |
| 2026-05-04 10:23 | 35.27719 | 136.94601 | 24576 ft | 582 kts | 62° |
| 2026-05-04 10:25 | 35.39390 | 137.26829 | 27132 ft | 592 kts | 67° |
| 2026-05-04 10:25 | 35.41036 | 137.31419 | 27516 ft | 593 kts | 68° |
| 2026-05-04 10:25 | 35.42739 | 137.36028 | 27960 ft | 595 kts | 66° |
| 2026-05-04 10:25 | 35.44478 | 137.40639 | 28422 ft | 597 kts | 66° |
| 2026-05-04 10:26 | 35.46217 | 137.45198 | 28910 ft | 597 kts | 66° |
| 2026-05-04 10:26 | 35.47994 | 137.49826 | 29418 ft | 598 kts | 66° |
| 2026-05-04 10:26 | 35.49770 | 137.54436 | 30007 ft | 596 kts | 66° |
| 2026-05-04 10:26 | 35.51548 | 137.59056 | 30639 ft | 593 kts | 66° |
| 2026-05-04 10:27 | 35.53302 | 137.63625 | 30846 ft | 596 kts | 67° |
| 2026-05-04 10:27 | 35.56805 | 137.72778 | 30854 ft | 590 kts | 68° |
| 2026-05-04 10:28 | 35.60258 | 137.81892 | 30851 ft | 593 kts | 68° |
| 2026-05-04 10:28 | 35.63631 | 137.91127 | 30840 ft | 589 kts | 70° |
| 2026-05-04 10:29 | 35.66938 | 138.00401 | 30833 ft | 594 kts | 70° |
| 2026-05-04 10:29 | 35.70337 | 138.09666 | 30829 ft | 592 kts | 68° |
| 2026-05-04 10:30 | 35.73892 | 138.18872 | 30830 ft | 605 kts | 66° |
| 2026-05-04 10:30 | 35.77576 | 138.28316 | 30819 ft | 610 kts | 66° |
| 2026-05-04 10:31 | 35.81237 | 138.37740 | 30830 ft | 610 kts | 67° |
| 2026-05-04 10:32 | 35.93899 | 138.70892 | 30817 ft | 605 kts | 68° |
| 2026-05-04 10:33 | 35.97450 | 138.80325 | 30816 ft | 605 kts | 67° |
| 2026-05-04 10:33 | 36.00998 | 138.89764 | 30815 ft | 607 kts | 68° |
| 2026-05-04 10:34 | 36.04563 | 138.99291 | 30795 ft | 606 kts | 68° |
| 2026-05-04 10:34 | 36.08077 | 139.08688 | 30787 ft | 607 kts | 67° |
| 2026-05-04 10:35 | 36.11628 | 139.18216 | 30789 ft | 607 kts | 68° |
| 2026-05-04 10:35 | 36.15193 | 139.27620 | 30769 ft | 606 kts | 66° |
| 2026-05-04 10:36 | 36.19351 | 139.36603 | 30629 ft | 596 kts | 57° |
| 2026-05-04 10:36 | 36.21692 | 139.40872 | 30037 ft | 591 kts | 54° |
| 2026-05-04 10:36 | 36.24104 | 139.45001 | 28993 ft | 596 kts | 53° |
| 2026-05-04 10:37 | 36.26604 | 139.49133 | 27790 ft | 604 kts | 52° |
| 2026-05-04 10:37 | 36.29165 | 139.53313 | 26514 ft | 612 kts | 52° |
| 2026-05-04 10:37 | 36.31765 | 139.57559 | 25156 ft | 619 kts | 52° |
| 2026-05-04 10:37 | 36.34310 | 139.61755 | 23805 ft | 615 kts | 52° |
| 2026-05-04 10:39 | 36.48587 | 139.85980 | 17952 ft | 547 kts | 53° |
| 2026-05-04 10:39 | 36.50771 | 139.89800 | 16997 ft | 535 kts | 54° |
| 2026-05-04 10:39 | 36.52837 | 139.93594 | 16041 ft | 524 kts | 56° |
| 2026-05-04 10:40 | 36.54807 | 139.97337 | 15109 ft | 512 kts | 57° |
| 2026-05-04 10:40 | 36.56704 | 140.00996 | 14218 ft | 498 kts | 57° |
| 2026-05-04 10:40 | 36.58540 | 140.04547 | 13364 ft | 484 kts | 57° |
| 2026-05-04 10:40 | 36.60348 | 140.08028 | 12463 ft | 470 kts | 57° |
| 2026-05-04 10:41 | 36.62103 | 140.11386 | 11616 ft | 456 kts | 57° |
| 2026-05-04 10:41 | 36.63795 | 140.14609 | 11128 ft | 434 kts | 56° |
| 2026-05-04 10:41 | 36.65413 | 140.17682 | 11064 ft | 416 kts | 56° |
| 2026-05-04 10:41 | 36.66959 | 140.20619 | 10877 ft | 394 kts | 56° |
| 2026-05-04 10:42 | 36.68421 | 140.23396 | 10701 ft | 372 kts | 56° |
| 2026-05-04 10:42 | 36.69806 | 140.26025 | 10535 ft | 353 kts | 56° |
| 2026-05-04 10:42 | 36.71128 | 140.28532 | 10348 ft | 336 kts | 56° |
| 2026-05-04 10:42 | 36.72379 | 140.30908 | 10195 ft | 321 kts | 56° |
| 2026-05-04 10:43 | 36.73632 | 140.33151 | 9851 ft | 314 kts | 50° |
| 2026-05-04 10:44 | 36.87278 | 140.38161 | 7211 ft | 291 kts | 4° |
| 2026-05-04 10:45 | 36.89259 | 140.38669 | 6829 ft | 289 kts | 3° |
| 2026-05-04 10:45 | 36.91197 | 140.39177 | 6475 ft | 280 kts | 3° |
| 2026-05-04 10:45 | 36.93071 | 140.39665 | 6220 ft | 269 kts | 2° |
| 2026-05-04 10:45 | 36.94862 | 140.40129 | 6067 ft | 254 kts | 2° |
| 2026-05-04 10:46 | 36.96546 | 140.40555 | 5897 ft | 242 kts | 2° |
| 2026-05-04 10:46 | 36.98191 | 140.40961 | 5616 ft | 236 kts | 1° |
| 2026-05-04 10:46 | 36.99785 | 140.41357 | 5364 ft | 230 kts | 1° |
| 2026-05-04 10:46 | 37.01325 | 140.41744 | 5132 ft | 221 kts | 358° |
| 2026-05-04 10:47 | 37.02815 | 140.41930 | 4893 ft | 210 kts | 351° |
| 2026-05-04 10:47 | 37.04268 | 140.41942 | 4659 ft | 211 kts | 349° |
| 2026-05-04 10:47 | 37.05744 | 140.41978 | 4350 ft | 209 kts | 351° |
| 2026-05-04 10:47 | 37.07185 | 140.42049 | 4052 ft | 206 kts | 351° |
| 2026-05-04 10:49 | 37.15337 | 140.42445 | 2470 ft | 132 kts | 354° |
| 2026-05-04 10:49 | 37.16283 | 140.42493 | 2268 ft | 136 kts | 355° |
| 2026-05-04 10:50 | 37.17256 | 140.42572 | 2045 ft | 142 kts | 358° |
| 2026-05-04 10:51 | 37.23251 | 140.42822 | 1220 ft | 50 kts | 2° |
| 2026-05-04 10:52 | 37.23413 | 140.42943 | 1208 ft | 25 kts | 90° |
| 2026-05-04 10:52 | 37.23293 | 140.43033 | 1205 ft | 22 kts | 184° |
| 2026-05-04 10:52 | 37.23154 | 140.43024 | 1210 ft | 17 kts | 181° |
| 2026-05-04 10:54 | 37.22755 | 140.43275 | 1217 ft | 0 kts | 91° |